Terminal Aerodrome Forecast
Issued by NWS Amarillo, TX

Current Version | Previous Version | Text Only | Print | Product List | Glossary On
Versions: 1 2 3 4 5 6 7 8 9 10 11 12 13 14 15 16 17
000
FTUS44 KAMA 161900 AAA
TAFDHT
TAF AMD
KDHT 161931Z 1620/1718 05018G25KT P6SM BKN250
     FM170100 03024G32KT P6SM BKN200
     FM171000 02022G30KT P6SM BKN015=

USA.gov is the U.S. government's official web portal to all federal, state and local government web resources and services.